Time;durP1;ratioP1;P1;durP2;ratioP2;P2;SDS_P1;SDS_P2;PMS_P1;PMS_P2;Temp;Humidity;BMP_temperature;BMP_pressure;BME280_temperature;BME280_humidity;BME280_pressure;Samples;Min_cycle;Max_cycle;Signal;HPM_P1;HPM_P2
2022/12/08 04:22:16;;;;;;;;;1.00;1.00;;;;;;;;5015532;28;10686;-96
2022/12/08 04:24:41;;;;;;;;;0.00;0.00;;;;;;;;5019580;28;8812;-96
2022/12/08 04:27:07;;;;;;;;;0.00;0.00;;;;;;;;5020938;28;8780;-96
2022/12/08 04:29:35;;;;;;;;;0.00;0.00;;;;;;;;5020481;28;8758;-96
2022/12/08 04:32:00;;;;;;;;;0.00;0.00;;;;;;;;5020383;28;8751;-96
2022/12/08 04:34:26;;;;;;;;;0.00;0.00;;;;;;;;5015890;28;27914;-96
2022/12/08 04:36:51;;;;;;;;;0.00;0.00;;;;;;;;5017635;28;8830;-95
2022/12/08 04:39:18;;;;;;;;;0.00;0.00;;;;;;;;5002045;28;8810;-96
2022/12/08 04:41:44;;;;;;;;;0.00;0.00;;;;;;;;5019648;28;27959;-96
2022/12/08 04:44:09;;;;;;;;;0.00;0.00;;;;;;;;5020453;28;8813;-96
2022/12/08 04:46:34;;;;;;;;;0.00;0.00;;;;;;;;5019876;28;8758;-96
2022/12/08 07:26:31;;;;;;;;;0.00;0.00;;;;;;;;5593299;22;29007;-87
2022/12/08 07:28:56;;;;;;;;;0.00;0.00;;;;;;;;5013354;28;28627;-93
2022/12/08 07:31:23;;;;;;;;;0.00;0.00;;;;;;;;5013022;28;28519;-88
2022/12/08 07:33:49;;;;;;;;;0.00;0.00;;;;;;;;5011570;28;30565;-88
2022/12/08 07:36:14;;;;;;;;;0.00;0.00;;;;;;;;5028899;28;28468;-93
2022/12/08 07:38:40;;;;;;;;;0.00;0.00;;;;;;;;5015930;28;28413;-96
2022/12/08 07:41:09;;;;;;;;;0.00;0.00;;;;;;;;5028188;28;28677;-94
2022/12/08 07:43:35;;;;;;;;;0.00;0.00;;;;;;;;5019623;28;29758;-90
2022/12/08 07:46:00;;;;;;;;;0.00;0.00;;;;;;;;5047894;28;28663;-95
2022/12/08 07:48:28;;;;;;;;;0.00;0.00;;;;;;;;5006229;28;28748;-95
2022/12/08 07:50:58;;;;;;;;;3.00;3.00;;;;;;;;4997382;28;28378;-96
2022/12/08 07:53:24;;;;;;;;;0.00;0.00;;;;;;;;5002506;28;30271;-95
2022/12/08 07:55:49;;;;;;;;;0.00;0.00;;;;;;;;5010474;28;29976;-95
2022/12/08 07:58:14;;;;;;;;;0.00;0.00;;;;;;;;5013730;28;28577;-96
2022/12/08 08:00:42;;;;;;;;;7.00;7.00;;;;;;;;5006931;28;29683;-95
2022/12/08 08:03:09;;;;;;;;;0.00;0.00;;;;;;;;5025226;28;29791;-94
2022/12/08 08:05:34;;;;;;;;;0.00;0.00;;;;;;;;5012003;28;28730;-96
2022/12/08 08:08:00;;;;;;;;;0.00;0.00;;;;;;;;5010164;28;28477;-96
2022/12/08 08:10:46;;;;;;;;;0.00;0.00;;;;;;;;5014822;28;28432;-96
2022/12/08 08:13:17;;;;;;;;;0.00;0.00;;;;;;;;5008707;28;30663;-96
2022/12/08 08:15:43;;;;;;;;;0.00;0.00;;;;;;;;5002858;28;28897;-92
2022/12/08 08:18:08;;;;;;;;;0.00;0.00;;;;;;;;5003500;28;27888;-91
2022/12/08 08:20:33;;;;;;;;;0.00;0.00;;;;;;;;5004451;28;28534;-92
2022/12/08 08:23:00;;;;;;;;;0.00;0.00;;;;;;;;5008988;28;30307;-96
2022/12/08 08:25:25;;;;;;;;;0.00;0.00;;;;;;;;5020659;28;28772;-94
2022/12/08 08:27:50;;;;;;;;;0.00;0.00;;;;;;;;5015402;28;28523;-96
2022/12/08 08:30:16;;;;;;;;;0.00;0.00;;;;;;;;5191329;22;29364;-96
2022/12/08 08:32:41;;;;;;;;;0.00;0.00;;;;;;;;5000166;28;29657;-95
2022/12/08 08:35:07;;;;;;;;;0.00;0.00;;;;;;;;5015355;28;27959;-96
2022/12/08 08:37:32;;;;;;;;;0.00;0.00;;;;;;;;5012754;28;28483;-95
2022/12/08 08:39:57;;;;;;;;;0.00;0.00;;;;;;;;5011247;28;28399;-96
2022/12/08 08:42:22;;;;;;;;;0.00;0.00;;;;;;;;5006286;28;30360;-96
2022/12/08 08:44:48;;;;;;;;;0.00;0.00;;;;;;;;5003300;28;28793;-96
2022/12/08 08:47:13;;;;;;;;;0.00;0.00;;;;;;;;5015341;28;28502;-96
2022/12/08 08:49:38;;;;;;;;;0.00;0.00;;;;;;;;5014811;28;27948;-96
2022/12/08 08:52:04;;;;;;;;;0.00;0.00;;;;;;;;5013822;28;29874;-96
2022/12/08 08:57:07;;;;;;;;;0.00;0.00;;;;;;;;5710909;22;28756;-96
2022/12/08 08:59:32;;;;;;;;;0.00;0.00;;;;;;;;5332204;22;30196;-96
2022/12/08 09:01:57;;;;;;;;;0.00;0.00;;;;;;;;5045692;28;30881;-94
2022/12/08 09:04:24;;;;;;;;;0.00;0.00;;;;;;;;5044534;28;28499;-96
2022/12/08 09:09:24;;;;;;;;;0.00;0.00;;;;;;;;5251005;22;28060;-96
2022/12/08 09:14:50;;;;;;;;;0.00;0.00;;;;;;;;5362154;22;27955;-96
2022/12/08 09:36:32;;;;;;;;;0.00;0.00;;;;;;;;5804153;23;29002;31
2022/12/08 09:38:57;;;;;;;;;0.00;0.00;;;;;;;;5026956;28;27947;-96
2022/12/08 09:49:46;;;;;;;;;0.00;0.00;;;;;;;;5631005;22;29406;-93
2022/12/08 09:52:18;;;;;;;;;0.00;0.00;;;;;;;;5036203;28;27905;-96
2022/12/08 09:54:44;;;;;;;;;0.00;0.00;;;;;;;;5043761;28;30343;-96
2022/12/08 10:10:10;;;;;;;;;0.00;0.00;;;;;;;;5259033;22;28251;-96
2022/12/08 10:12:47;;;;;;;;;0.00;0.00;;;;;;;;5053183;28;28093;-96
2022/12/08 10:15:28;;;;;;;;;1.00;1.00;;;;;;;;5041101;28;29925;-96
2022/12/08 10:17:54;;;;;;;;;0.00;0.00;;;;;;;;5044075;28;27844;-96
2022/12/08 10:20:24;;;;;;;;;0.00;0.00;;;;;;;;5036219;28;27986;-96
2022/12/08 10:22:54;;;;;;;;;4.00;4.00;;;;;;;;5037696;28;27899;-96
2022/12/08 10:30:22;;;;;;;;;0.00;0.00;;;;;;;;5461461;22;27945;-96
2022/12/08 10:32:49;;;;;;;;;0.00;0.00;;;;;;;;5014408;28;28477;-96
2022/12/08 10:35:16;;;;;;;;;0.00;0.00;;;;;;;;5025526;28;28808;-96
2022/12/08 10:37:53;;;;;;;;;0.00;0.00;;;;;;;;5040823;28;27811;-96
2022/12/08 10:40:19;;;;;;;;;0.00;0.00;;;;;;;;5018095;28;27849;-96
2022/12/08 10:45:26;;;;;;;;;0.00;0.00;;;;;;;;5256585;22;28786;-96
2022/12/08 11:01:48;;;;;;;;;0.00;0.00;;;;;;;;5870459;22;29050;-95
2022/12/08 11:22:56;;;;;;;;;0.00;0.00;;;;;;;;5263206;22;28894;-96
2022/12/08 11:25:28;;;;;;;;;0.00;0.00;;;;;;;;5022777;28;27939;-95
2022/12/08 11:27:55;;;;;;;;;0.00;0.00;;;;;;;;5035862;28;28415;-93
2022/12/08 11:30:26;;;;;;;;;0.00;0.00;;;;;;;;5018979;28;28670;-94
2022/12/08 11:32:54;;;;;;;;;0.00;0.00;;;;;;;;5030671;28;28513;-96
2022/12/08 11:35:24;;;;;;;;;0.00;0.00;;;;;;;;5028040;28;28522;-94
2022/12/08 11:37:49;;;;;;;;;0.00;0.00;;;;;;;;5020882;28;28314;-96
2022/12/08 11:40:19;;;;;;;;;0.00;0.00;;;;;;;;5034688;28;28670;-91
2022/12/08 11:42:55;;;;;;;;;0.00;0.00;;;;;;;;5031556;28;27897;-90
2022/12/08 11:45:24;;;;;;;;;0.00;0.00;;;;;;;;5006878;28;28461;-89
2022/12/08 11:47:55;;;;;;;;;0.00;0.00;;;;;;;;5032564;28;29289;-89
2022/12/08 11:50:27;;;;;;;;;0.00;0.00;;;;;;;;5034559;28;28423;-91
2022/12/08 11:52:52;;;;;;;;;0.00;0.00;;;;;;;;5009503;28;28922;-91
2022/12/08 11:55:33;;;;;;;;;0.00;0.00;;;;;;;;5014781;28;28645;-91
2022/12/08 11:58:03;;;;;;;;;0.00;0.00;;;;;;;;5031837;28;28526;-91
2022/12/08 12:00:28;;;;;;;;;0.00;0.00;;;;;;;;5014369;28;28595;-90
2022/12/08 12:02:59;;;;;;;;;0.00;0.00;;;;;;;;5014347;28;28574;-90
2022/12/08 12:05:30;;;;;;;;;0.00;0.00;;;;;;;;5032100;28;28368;-92
2022/12/08 12:07:58;;;;;;;;;0.00;0.00;;;;;;;;5031990;28;29374;-91
2022/12/08 12:10:24;;;;;;;;;0.00;0.00;;;;;;;;5032119;28;28882;-91
2022/12/08 12:12:49;;;;;;;;;0.00;0.00;;;;;;;;5029297;28;27863;-90
2022/12/08 12:15:32;;;;;;;;;0.00;0.00;;;;;;;;5013448;28;28507;-90
2022/12/08 12:17:58;;;;;;;;;0.00;0.00;;;;;;;;5030743;28;29966;-91
2022/12/08 12:20:26;;;;;;;;;0.00;0.00;;;;;;;;5011648;28;28484;-91
2022/12/08 12:22:58;;;;;;;;;0.00;0.00;;;;;;;;5031103;28;28451;-91
2022/12/08 12:25:25;;;;;;;;;0.00;0.00;;;;;;;;5026647;28;28510;-91
2022/12/08 12:27:51;;;;;;;;;0.00;0.00;;;;;;;;5004321;28;30091;-91
2022/12/08 12:30:24;;;;;;;;;0.00;0.00;;;;;;;;5005420;28;29094;-91
2022/12/08 12:32:54;;;;;;;;;0.00;0.00;;;;;;;;5003444;28;28530;-91
2022/12/08 12:35:22;;;;;;;;;0.00;0.00;;;;;;;;5001880;28;28619;-91
2022/12/08 12:37:48;;;;;;;;;0.00;0.00;;;;;;;;5007449;28;30075;-90
2022/12/08 12:40:19;;;;;;;;;0.00;0.00;;;;;;;;5026937;28;29090;-91
2022/12/08 12:42:48;;;;;;;;;0.00;0.00;;;;;;;;5009590;28;28405;-90
2022/12/08 12:45:14;;;;;;;;;0.00;0.00;;;;;;;;5006002;28;28470;-91
2022/12/08 12:47:46;;;;;;;;;0.00;0.00;;;;;;;;5007523;28;31109;-90
2022/12/08 12:50:12;;;;;;;;;0.00;0.00;;;;;;;;5013030;28;28575;-90
2022/12/08 12:52:38;;;;;;;;;0.00;0.00;;;;;;;;5030930;28;28596;-90
2022/12/08 12:55:09;;;;;;;;;0.00;0.00;;;;;;;;5010889;28;28543;-91
2022/12/08 12:57:36;;;;;;;;;0.00;0.00;;;;;;;;5000811;28;29515;-91
2022/12/08 13:00:01;;;;;;;;;9.00;9.00;;;;;;;;5008959;28;28639;-91
2022/12/08 13:02:26;;;;;;;;;0.00;0.00;;;;;;;;5028701;28;28475;-91
2022/12/08 13:04:54;;;;;;;;;0.00;0.00;;;;;;;;5022748;28;28443;-90
2022/12/08 13:07:28;;;;;;;;;0.00;0.00;;;;;;;;5025710;28;28534;-91
2022/12/08 13:10:16;;;;;;;;;6.00;6.00;;;;;;;;5024743;28;28546;-91
2022/12/08 13:12:42;;;;;;;;;0.00;0.00;;;;;;;;5026084;28;28364;-90
2022/12/08 13:15:15;;;;;;;;;0.00;0.00;;;;;;;;5008659;28;29370;-90
2022/12/08 13:17:43;;;;;;;;;0.00;0.00;;;;;;;;5011816;28;31254;-90
2022/12/08 13:20:18;;;;;;;;;0.00;0.00;;;;;;;;5004420;28;28577;-91
2022/12/08 13:22:52;;;;;;;;;0.00;0.00;;;;;;;;5000209;28;28496;-91
2022/12/08 13:25:36;;;;;;;;;0.00;0.00;;;;;;;;5025790;28;28555;-89
2022/12/08 13:28:12;;;;;;;;;0.00;0.00;;;;;;;;5020452;28;30159;-91
2022/12/08 13:30:49;;;;;;;;;0.00;0.00;;;;;;;;5027984;28;28423;-92
2022/12/08 13:33:21;;;;;;;;;0.00;0.00;;;;;;;;5017463;28;27966;-92
2022/12/08 13:35:50;;;;;;;;;0.00;0.00;;;;;;;;5027988;28;28516;-92
2022/12/08 13:38:18;;;;;;;;;0.00;0.00;;;;;;;;4998683;28;30077;-91
2022/12/08 13:40:44;;;;;;;;;0.00;0.00;;;;;;;;4998633;28;28838;-91
2022/12/08 13:43:24;;;;;;;;;0.00;0.00;;;;;;;;5004554;28;28617;-91
2022/12/08 13:45:50;;;;;;;;;0.00;0.00;;;;;;;;5005773;28;28424;-92
2022/12/08 13:48:31;;;;;;;;;0.00;0.00;;;;;;;;5002200;28;29785;-92
2022/12/08 13:51:04;;;;;;;;;0.00;0.00;;;;;;;;5022734;28;29396;-92
2022/12/08 13:53:32;;;;;;;;;0.00;0.00;;;;;;;;5027830;28;28550;-93
2022/12/08 13:55:58;;;;;;;;;0.00;0.00;;;;;;;;5028909;28;28630;-91
2022/12/08 13:58:25;;;;;;;;;0.00;0.00;;;;;;;;5021172;28;29506;-93
2022/12/08 14:01:02;;;;;;;;;0.00;0.00;;;;;;;;5004733;28;28527;-92
2022/12/08 14:03:28;;;;;;;;;0.00;0.00;;;;;;;;5009115;28;28312;-91
2022/12/08 14:05:53;;;;;;;;;0.00;0.00;;;;;;;;5025944;28;28447;-92
2022/12/08 14:08:22;;;;;;;;;0.00;0.00;;;;;;;;5007939;28;29849;-91
2022/12/08 14:10:52;;;;;;;;;0.00;0.00;;;;;;;;5019955;28;28575;-92
2022/12/08 14:13:17;;;;;;;;;0.00;0.00;;;;;;;;5019323;28;28487;-92
2022/12/08 14:15:42;;;;;;;;;0.00;0.00;;;;;;;;5011500;28;28532;-92
2022/12/08 14:18:21;;;;;;;;;0.00;0.00;;;;;;;;5006864;28;30299;-91
2022/12/08 14:20:57;;;;;;;;;0.00;0.00;;;;;;;;5024343;28;30390;-91
2022/12/08 14:23:22;;;;;;;;;0.00;0.00;;;;;;;;5010359;28;28451;-92
2022/12/08 14:25:48;;;;;;;;;0.00;0.00;;;;;;;;5009884;28;28452;-92
2022/12/08 14:28:15;;;;;;;;;0.00;0.00;;;;;;;;5026639;28;28660;-92
2022/12/08 14:30:40;;;;;;;;;0.67;0.67;;;;;;;;5007791;28;29673;-92
2022/12/08 14:33:11;;;;;;;;;0.00;0.00;;;;;;;;5005470;28;28520;-93
2022/12/08 14:35:37;;;;;;;;;0.00;0.00;;;;;;;;5012127;28;28419;-92
2022/12/08 14:38:04;;;;;;;;;0.00;0.00;;;;;;;;5026851;28;29677;-91
2022/12/08 14:40:33;;;;;;;;;0.00;0.00;;;;;;;;5010049;28;28973;-92
2022/12/08 14:43:04;;;;;;;;;0.00;0.00;;;;;;;;5007675;28;29346;-92
2022/12/08 14:45:29;;;;;;;;;0.00;0.00;;;;;;;;5024988;28;28435;-92
2022/12/08 14:47:54;;;;;;;;;0.00;0.00;;;;;;;;5008280;28;29738;-91
2022/12/08 14:50:52;;;;;;;;;0.00;0.00;;;;;;;;5025084;28;28183;-93
2022/12/08 14:53:17;;;;;;;;;0.00;0.00;;;;;;;;4958980;28;28743;-93
2022/12/08 14:55:44;;;;;;;;;0.00;0.00;;;;;;;;4949007;28;28542;-92
2022/12/08 14:58:38;;;;;;;;;0.00;0.00;;;;;;;;4951614;28;30049;-93
2022/12/08 15:01:05;;;;;;;;;0.00;0.00;;;;;;;;4946739;28;28521;-91
2022/12/08 15:03:31;;;;;;;;;0.00;0.00;;;;;;;;4969754;28;29688;-92
2022/12/08 15:06:02;;;;;;;;;0.00;0.00;;;;;;;;4965727;28;28430;-92
2022/12/08 15:08:27;;;;;;;;;10.00;10.00;;;;;;;;4968551;28;28652;-92
2022/12/08 15:11:11;;;;;;;;;0.00;0.00;;;;;;;;4958630;28;29357;-92
2022/12/08 15:13:42;;;;;;;;;0.00;0.00;;;;;;;;4966138;28;28548;-90
2022/12/08 15:16:24;;;;;;;;;0.00;0.00;;;;;;;;4951071;28;28349;-93
2022/12/08 15:19:00;;;;;;;;;0.00;0.00;;;;;;;;4974681;28;28615;-93
2022/12/08 15:21:28;;;;;;;;;0.00;0.00;;;;;;;;4973869;28;28891;-94
2022/12/08 15:23:54;;;;;;;;;0.00;0.00;;;;;;;;4961735;28;28627;-92
2022/12/08 15:26:23;;;;;;;;;0.00;0.00;;;;;;;;4955716;28;28402;-95
2022/12/08 15:28:48;;;;;;;;;0.00;0.00;;;;;;;;4972051;28;30982;-92
2022/12/08 15:31:14;;;;;;;;;0.00;0.00;;;;;;;;5033696;28;28450;-91
2022/12/08 15:33:40;;;;;;;;;0.00;0.00;;;;;;;;5017514;28;27899;-91
2022/12/08 15:36:05;;;;;;;;;0.00;0.00;;;;;;;;5019756;28;27939;-91
2022/12/08 15:38:30;;;;;;;;;0.00;0.00;;;;;;;;5012349;28;31922;-91
2022/12/08 15:40:59;;;;;;;;;0.00;0.00;;;;;;;;5012736;28;29633;-91
2022/12/08 15:43:24;;;;;;;;;0.00;0.00;;;;;;;;5030157;28;28500;-92
2022/12/08 15:45:49;;;;;;;;;0.00;0.00;;;;;;;;5028845;28;28518;-91
2022/12/08 15:48:19;;;;;;;;;0.00;0.00;;;;;;;;5014433;28;30605;-92
2022/12/08 15:50:45;;;;;;;;;0.00;0.00;;;;;;;;5027596;28;28517;-90
2022/12/08 15:53:10;;;;;;;;;0.00;0.00;;;;;;;;5015232;28;28420;-91
2022/12/08 15:55:36;;;;;;;;;0.00;0.00;;;;;;;;5005196;28;28626;-90
2022/12/08 15:58:01;;;;;;;;;0.00;0.00;;;;;;;;5007847;28;29930;-91
2022/12/08 16:00:32;;;;;;;;;0.00;0.00;;;;;;;;5008192;28;28631;-92
2022/12/08 16:02:58;;;;;;;;;0.00;0.00;;;;;;;;5014353;28;27945;-90
2022/12/08 16:05:24;;;;;;;;;0.00;0.00;;;;;;;;5007738;28;28593;-92
2022/12/08 16:07:49;;;;;;;;;0.00;0.00;;;;;;;;5017730;28;29826;-96
2022/12/08 16:10:25;;;;;;;;;0.00;0.00;;;;;;;;5033432;28;28564;-92
2022/12/08 16:15:35;;;;;;;;;0.00;0.00;;;;;;;;5025358;28;28468;-91
2022/12/08 16:18:00;;;;;;;;;0.00;0.00;;;;;;;;5008459;28;30716;-92
2022/12/08 16:20:25;;;;;;;;;0.00;0.00;;;;;;;;5022766;28;45623;-92
2022/12/08 16:22:51;;;;;;;;;0.00;0.00;;;;;;;;5031267;28;9103;-92
2022/12/08 16:25:17;;;;;;;;;0.00;0.00;;;;;;;;5028081;28;8860;-91
2022/12/08 16:27:42;;;;;;;;;0.00;0.00;;;;;;;;5048210;28;8815;-93
2022/12/08 16:30:12;;;;;;;;;0.00;0.00;;;;;;;;5026988;28;8836;-92
2022/12/08 16:32:37;;;;;;;;;0.00;0.00;;;;;;;;5029043;28;8809;-91
2022/12/08 16:35:02;;;;;;;;;0.00;0.00;;;;;;;;5044227;28;8826;-92
2022/12/08 16:37:28;;;;;;;;;0.00;0.00;;;;;;;;5049796;28;8831;-92
2022/12/08 16:39:54;;;;;;;;;1.00;1.00;;;;;;;;5042666;28;15146;-92
2022/12/08 16:42:42;;;;;;;;;0.00;0.00;;;;;;;;5045111;28;8901;-91
2022/12/08 16:45:12;;;;;;;;;0.00;0.00;;;;;;;;5051827;28;8801;-91
2022/12/08 16:47:38;;;;;;;;;0.00;0.00;;;;;;;;5049350;28;8891;-92
2022/12/08 16:50:05;;;;;;;;;0.00;0.00;;;;;;;;5047024;28;21303;-92
2022/12/08 16:52:30;;;;;;;;;0.00;0.00;;;;;;;;5024600;28;25269;-92
2022/12/08 16:54:55;;;;;;;;;0.00;0.00;;;;;;;;5029678;28;29162;-92
2022/12/08 16:57:20;;;;;;;;;0.00;0.00;;;;;;;;5028245;28;27776;-91
2022/12/08 16:59:45;;;;;;;;;0.00;0.00;;;;;;;;5054005;28;8805;-92
2022/12/08 17:02:11;;;;;;;;;0.00;0.00;;;;;;;;5044501;28;8950;-90
2022/12/08 17:04:36;;;;;;;;;0.00;0.00;;;;;;;;5024789;28;9719;-91
2022/12/08 17:07:01;;;;;;;;;0.00;0.00;;;;;;;;5047925;28;17032;-92
2022/12/08 17:09:27;;;;;;;;;0.00;0.00;;;;;;;;5049182;28;25813;-91
2022/12/08 17:11:52;;;;;;;;;0.00;0.00;;;;;;;;5025936;28;20110;-92
2022/12/08 17:14:17;;;;;;;;;0.00;0.00;;;;;;;;5045495;28;8850;-91
2022/12/08 17:16:43;;;;;;;;;0.00;0.00;;;;;;;;5032170;28;8950;-91
2022/12/08 17:19:10;;;;;;;;;0.00;0.00;;;;;;;;5049479;28;8873;-90
2022/12/08 17:21:35;;;;;;;;;0.00;0.00;;;;;;;;5032349;28;11583;-90
2022/12/08 17:24:01;;;;;;;;;30.00;30.00;;;;;;;;5050296;28;15451;-91
2022/12/08 17:26:26;;;;;;;;;0.00;0.00;;;;;;;;5029210;28;20771;-91
2022/12/08 17:28:51;;;;;;;;;0.00;0.00;;;;;;;;5024740;28;25611;-91
2022/12/08 17:31:16;;;;;;;;;0.00;0.00;;;;;;;;5029871;28;9458;-91
2022/12/08 17:33:42;;;;;;;;;0.00;0.00;;;;;;;;5047843;28;8901;-92
2022/12/08 17:36:10;;;;;;;;;0.00;0.00;;;;;;;;5048011;28;9459;-91
2022/12/08 17:38:35;;;;;;;;;12.00;12.00;;;;;;;;5024669;28;8931;-91
2022/12/08 17:41:01;;;;;;;;;0.00;0.00;;;;;;;;5025696;28;14701;-91
2022/12/08 17:43:26;;;;;;;;;0.00;0.00;;;;;;;;5047612;28;13594;-92
2022/12/08 17:45:52;;;;;;;;;0.00;0.00;;;;;;;;5028286;28;8806;-91
2022/12/08 17:48:17;;;;;;;;;0.00;0.00;;;;;;;;5043757;28;8814;-90
2022/12/08 17:50:43;;;;;;;;;0.00;0.00;;;;;;;;5039206;28;8830;-91
2022/12/08 17:53:09;;;;;;;;;0.00;0.00;;;;;;;;5045550;28;8990;-90
2022/12/08 17:55:35;;;;;;;;;0.00;0.00;;;;;;;;5039221;28;15612;-91
2022/12/08 17:58:00;;;;;;;;;0.00;0.00;;;;;;;;5043579;28;26657;-92
2022/12/08 18:00:26;;;;;;;;;0.00;0.00;;;;;;;;5026963;28;13688;-91
2022/12/08 18:02:51;;;;;;;;;0.00;0.00;;;;;;;;5037192;28;12455;-92
2022/12/08 18:05:16;;;;;;;;;0.00;0.00;;;;;;;;5028325;28;15933;-90
2022/12/08 18:07:41;;;;;;;;;0.00;0.00;;;;;;;;5050067;28;13488;-92
2022/12/08 18:10:07;;;;;;;;;0.00;0.00;;;;;;;;5032076;28;8807;-91
2022/12/08 18:12:32;;;;;;;;;0.00;0.00;;;;;;;;5015870;28;26630;-91
2022/12/08 18:14:57;;;;;;;;;0.00;0.00;;;;;;;;5030058;28;11065;-93
2022/12/08 18:17:22;;;;;;;;;0.00;0.00;;;;;;;;5025856;28;13655;-95
2022/12/08 18:19:48;;;;;;;;;0.00;0.00;;;;;;;;5033819;28;14824;-91
2022/12/08 18:22:14;;;;;;;;;0.00;0.00;;;;;;;;5028659;28;8815;-90
2022/12/08 18:24:40;;;;;;;;;0.00;0.00;;;;;;;;5048886;28;40258;-90
2022/12/08 18:27:05;;;;;;;;;0.00;0.00;;;;;;;;5017485;28;27426;-91
2022/12/08 18:29:30;;;;;;;;;0.00;0.00;;;;;;;;5029196;28;18891;-90
2022/12/08 18:31:56;;;;;;;;;0.00;0.00;;;;;;;;5024653;28;8872;-91
2022/12/08 18:34:21;;;;;;;;;0.00;0.00;;;;;;;;5024436;28;8816;-94
2022/12/08 18:36:46;;;;;;;;;0.00;0.00;;;;;;;;5015010;28;19390;-96
2022/12/08 18:39:19;;;;;;;;;0.00;0.00;;;;;;;;5028115;28;15573;-90
2022/12/08 18:41:44;;;;;;;;;0.00;0.00;;;;;;;;5047402;28;20061;-93
2022/12/08 18:44:10;;;;;;;;;0.00;0.00;;;;;;;;5018568;28;11270;-93
2022/12/08 18:46:35;;;;;;;;;0.00;0.00;;;;;;;;5027265;28;12453;-88
2022/12/08 18:49:00;;;;;;;;;0.00;0.00;;;;;;;;5045958;28;8949;-90
2022/12/08 18:51:25;;;;;;;;;0.00;0.00;;;;;;;;5044211;28;11803;-91
2022/12/08 18:53:51;;;;;;;;;0.00;0.00;;;;;;;;5039996;28;28070;-91
2022/12/08 18:56:19;;;;;;;;;1.00;1.00;;;;;;;;5015636;28;28548;-89
2022/12/08 18:58:44;;;;;;;;;0.00;0.00;;;;;;;;5001286;28;28587;-89
2022/12/08 19:01:12;;;;;;;;;0.00;0.00;;;;;;;;5006529;28;28468;-89
2022/12/08 19:03:39;;;;;;;;;0.00;0.00;;;;;;;;5026051;28;28557;-90
2022/12/08 19:06:04;;;;;;;;;0.00;0.00;;;;;;;;5028472;28;28467;-92
2022/12/08 19:08:30;;;;;;;;;0.00;0.00;;;;;;;;5029233;28;28950;-91
2022/12/08 19:10:55;;;;;;;;;0.00;0.00;;;;;;;;5029353;28;28474;-90
2022/12/08 19:13:20;;;;;;;;;0.00;0.00;;;;;;;;5000293;28;30464;-90
2022/12/08 19:15:45;;;;;;;;;6.00;6.00;;;;;;;;5012218;28;29498;-92
2022/12/08 19:18:10;;;;;;;;;0.00;0.00;;;;;;;;4998875;28;28517;-91
2022/12/08 19:20:36;;;;;;;;;0.00;0.00;;;;;;;;5014523;28;27871;-91
2022/12/08 19:23:01;;;;;;;;;6.00;6.00;;;;;;;;5035255;28;8925;-92
2022/12/08 19:25:26;;;;;;;;;0.00;0.00;;;;;;;;5026148;28;8813;-92
2022/12/08 19:27:51;;;;;;;;;0.00;0.00;;;;;;;;5052158;28;24857;-91
2022/12/08 19:30:17;;;;;;;;;15.00;15.00;;;;;;;;5017651;28;28016;-91
2022/12/08 19:32:42;;;;;;;;;0.00;0.00;;;;;;;;5047320;28;8840;-92
2022/12/08 19:35:07;;;;;;;;;0.00;0.00;;;;;;;;5023509;28;8819;-92
2022/12/08 19:37:33;;;;;;;;;0.00;0.00;;;;;;;;5027865;28;24170;-93
2022/12/08 19:45:26;;;;;;;;;0.00;0.00;;;;;;;;5047139;28;8772;-96
2022/12/08 19:47:52;;;;;;;;;0.00;0.00;;;;;;;;5025203;28;8967;-95
2022/12/08 19:50:35;;;;;;;;;0.00;0.00;;;;;;;;5030656;28;24945;-96
2022/12/08 19:53:08;;;;;;;;;0.00;0.00;;;;;;;;5017397;28;30001;-96
2022/12/08 19:55:35;;;;;;;;;0.00;0.00;;;;;;;;5019794;28;29077;-96
2022/12/08 19:58:01;;;;;;;;;0.00;0.00;;;;;;;;5034641;28;27926;-96
2022/12/08 20:00:26;;;;;;;;;0.00;0.00;;;;;;;;5048548;28;8797;-96
2022/12/08 20:02:52;;;;;;;;;0.00;0.00;;;;;;;;5059933;28;11465;-96
2022/12/08 20:05:18;;;;;;;;;0.00;0.00;;;;;;;;5050787;28;27848;-96
2022/12/08 20:07:43;;;;;;;;;0.00;0.00;;;;;;;;5009454;28;27916;-96
2022/12/08 20:10:14;;;;;;;;;0.00;0.00;;;;;;;;5025084;28;28232;-96
2022/12/08 20:12:39;;;;;;;;;0.00;0.00;;;;;;;;5037914;28;28205;-96
2022/12/08 20:15:05;;;;;;;;;0.00;0.00;;;;;;;;5048851;28;27828;-96
2022/12/08 20:17:30;;;;;;;;;0.00;0.00;;;;;;;;5053601;28;8780;-96
2022/12/08 20:19:56;;;;;;;;;0.00;0.00;;;;;;;;5055212;28;8795;-96
2022/12/08 20:22:21;;;;;;;;;0.00;0.00;;;;;;;;5049287;28;27938;-96
2022/12/08 20:24:48;;;;;;;;;3.00;3.00;;;;;;;;5014449;28;28614;-96
2022/12/08 20:27:14;;;;;;;;;0.00;0.00;;;;;;;;5014903;28;28342;-96
2022/12/08 20:29:40;;;;;;;;;0.00;0.00;;;;;;;;5030581;28;27973;-95
2022/12/08 20:32:05;;;;;;;;;0.00;0.00;;;;;;;;5019172;28;27860;-96
2022/12/08 20:34:31;;;;;;;;;0.33;0.33;;;;;;;;4998732;28;28390;-96
2022/12/08 20:36:56;;;;;;;;;0.00;0.00;;;;;;;;5017144;28;27801;-96
2022/12/08 20:39:21;;;;;;;;;1.33;1.33;;;;;;;;5019293;28;26459;-96
2022/12/08 20:41:47;;;;;;;;;0.00;0.00;;;;;;;;5018494;28;27696;-96
2022/12/08 20:44:12;;;;;;;;;0.00;0.00;;;;;;;;5001044;28;29195;-96
2022/12/08 20:46:37;;;;;;;;;0.00;0.00;;;;;;;;5002426;28;27824;-96
2022/12/08 20:49:03;;;;;;;;;0.00;0.00;;;;;;;;5017919;28;27976;-95
2022/12/08 20:51:29;;;;;;;;;0.00;0.00;;;;;;;;5021005;28;9565;-96
2022/12/08 20:53:55;;;;;;;;;0.00;0.00;;;;;;;;5019362;28;8801;-96
2022/12/08 20:56:21;;;;;;;;;0.00;0.00;;;;;;;;5019038;28;24213;-96
2022/12/08 20:58:47;;;;;;;;;0.00;0.00;;;;;;;;5000751;28;28051;-96
2022/12/08 21:01:18;;;;;;;;;0.00;0.00;;;;;;;;4999181;28;29967;-95
2022/12/08 21:03:44;;;;;;;;;0.00;0.00;;;;;;;;5001989;28;29827;-96
2022/12/08 21:06:09;;;;;;;;;6.00;6.00;;;;;;;;5004170;28;28531;-96
2022/12/08 21:08:34;;;;;;;;;2.00;0.00;;;;;;;;5003415;28;28499;-96
2022/12/08 21:11:00;;;;;;;;;0.00;0.00;;;;;;;;5005890;28;29710;-96
2022/12/08 21:13:25;;;;;;;;;0.00;0.00;;;;;;;;5024170;28;28460;-96
2022/12/08 21:15:51;;;;;;;;;0.00;0.00;;;;;;;;5025372;28;8797;-95
2022/12/08 21:18:16;;;;;;;;;0.00;0.00;;;;;;;;5019214;28;8809;-96
2022/12/08 21:20:42;;;;;;;;;0.00;0.00;;;;;;;;5031912;28;27907;-96
2022/12/08 21:23:07;;;;;;;;;0.00;0.00;;;;;;;;5016049;28;28566;-96
2022/12/08 21:25:32;;;;;;;;;0.00;0.00;;;;;;;;5017679;28;28483;-95
2022/12/08 21:27:57;;;;;;;;;0.00;0.00;;;;;;;;5038955;28;8819;-96
2022/12/08 21:30:24;;;;;;;;;0.00;0.00;;;;;;;;5040675;28;8803;-96
2022/12/08 21:32:49;;;;;;;;;0.00;0.00;;;;;;;;5038826;28;26540;-96
2022/12/08 21:35:14;;;;;;;;;0.00;0.00;;;;;;;;5037268;28;27876;-96
2022/12/08 21:37:39;;;;;;;;;0.00;0.00;;;;;;;;5037855;28;8823;-96
2022/12/08 21:40:05;;;;;;;;;0.00;0.00;;;;;;;;5037568;28;8819;-96
2022/12/08 21:42:42;;;;;;;;;0.00;0.00;;;;;;;;5037304;28;26553;-96
2022/12/08 21:45:08;;;;;;;;;0.00;0.00;;;;;;;;5018306;28;28484;-95
2022/12/08 21:47:33;;;;;;;;;0.00;0.00;;;;;;;;5019497;28;28094;-95
2022/12/08 21:49:59;;;;;;;;;0.00;0.00;;;;;;;;5037272;28;30875;-96
2022/12/08 21:52:24;;;;;;;;;0.00;0.00;;;;;;;;5036518;28;20974;-96
2022/12/08 21:54:49;;;;;;;;;0.00;0.00;;;;;;;;5036680;28;27942;-96
2022/12/08 21:57:15;;;;;;;;;0.00;0.00;;;;;;;;5016094;28;28458;-96
2022/12/08 21:59:40;;;;;;;;;0.00;0.00;;;;;;;;5030418;28;30195;-96
2022/12/08 22:02:08;;;;;;;;;0.00;0.00;;;;;;;;5042090;28;8821;-96
2022/12/08 22:04:33;;;;;;;;;0.00;0.00;;;;;;;;5024659;28;8791;-96
2022/12/08 22:06:59;;;;;;;;;0.00;0.00;;;;;;;;5027205;28;24880;-96
2022/12/08 22:09:24;;;;;;;;;4.00;4.00;;;;;;;;5023595;28;29801;-96
2022/12/08 22:11:49;;;;;;;;;0.00;0.00;;;;;;;;5005736;28;28685;-96
2022/12/08 22:14:14;;;;;;;;;0.00;0.00;;;;;;;;5051315;28;28431;-96
2022/12/08 22:16:40;;;;;;;;;6.00;6.00;;;;;;;;5017598;28;28325;-96
2022/12/08 22:19:05;;;;;;;;;0.00;0.00;;;;;;;;5015173;28;30773;-96
2022/12/08 22:21:30;;;;;;;;;0.00;0.00;;;;;;;;5023679;28;29381;-96
2022/12/08 22:23:56;;;;;;;;;0.00;0.00;;;;;;;;5016477;28;8825;-95
2022/12/08 22:26:22;;;;;;;;;0.00;0.00;;;;;;;;5042757;28;8839;-96
2022/12/08 22:28:47;;;;;;;;;0.00;0.00;;;;;;;;5041519;28;27888;-96
2022/12/08 22:31:14;;;;;;;;;0.00;0.00;;;;;;;;5038510;28;28459;-96
2022/12/08 22:33:40;;;;;;;;;0.00;0.00;;;;;;;;5041048;28;8827;-95
2022/12/08 22:36:05;;;;;;;;;0.00;0.00;;;;;;;;5049241;28;8736;-96
2022/12/08 22:38:39;;;;;;;;;0.00;0.00;;;;;;;;5055983;28;27714;-95
2022/12/08 22:41:20;;;;;;;;;0.00;0.00;;;;;;;;5049465;28;27768;-96
2022/12/08 22:43:46;;;;;;;;;0.00;0.00;;;;;;;;5028023;28;27795;-96
2022/12/08 22:46:13;;;;;;;;;0.00;0.00;;;;;;;;5048431;28;8749;-96
2022/12/08 22:48:39;;;;;;;;;2.00;2.00;;;;;;;;5050440;28;8811;-96
2022/12/08 22:51:05;;;;;;;;;0.00;0.00;;;;;;;;5069009;28;26576;-96
2022/12/08 22:53:32;;;;;;;;;2.00;2.00;;;;;;;;5050595;28;27859;-96
2022/12/08 22:55:59;;;;;;;;;1.00;1.00;;;;;;;;5047268;28;27974;-96
2022/12/08 22:58:24;;;;;;;;;0.00;0.00;;;;;;;;5050663;28;8846;-96
2022/12/08 23:00:49;;;;;;;;;0.00;0.00;;;;;;;;5050513;28;8907;-96
2022/12/08 23:03:15;;;;;;;;;0.00;0.00;;;;;;;;5044867;28;24001;-96
2022/12/08 23:05:40;;;;;;;;;0.00;0.00;;;;;;;;5033628;28;28361;-96
2022/12/08 23:08:07;;;;;;;;;0.00;0.00;;;;;;;;5046726;28;8812;-96
2022/12/08 23:10:33;;;;;;;;;0.00;0.00;;;;;;;;5047874;28;8914;-96
2022/12/08 23:13:06;;;;;;;;;2.00;2.00;;;;;;;;5043051;28;24182;-96
2022/12/08 23:15:47;;;;;;;;;0.00;0.00;;;;;;;;5039925;28;28509;-96
2022/12/08 23:18:13;;;;;;;;;0.00;0.00;;;;;;;;5042384;28;13205;-96
2022/12/08 23:20:39;;;;;;;;;0.00;0.00;;;;;;;;5043685;28;8816;-96
2022/12/08 23:23:04;;;;;;;;;0.00;0.00;;;;;;;;5045029;28;8804;-96